createdAt,value
2018-03-06T00:01:07.915Z,21.17
2018-03-06T00:03:34.768Z,20.13
2018-03-06T00:06:01.568Z,19.87
2018-03-06T00:08:28.381Z,19.90
2018-03-06T00:10:55.220Z,22.20
2018-03-06T00:13:22.043Z,20.23
2018-03-06T00:15:48.837Z,19.50
2018-03-06T00:18:15.642Z,20.03
2018-03-06T00:20:42.459Z,19.73
2018-03-06T00:23:09.419Z,20.53
2018-03-06T00:25:36.219Z,19.67
2018-03-06T00:28:03.012Z,18.30
2018-03-06T00:30:29.943Z,21.67
2018-03-06T00:32:56.998Z,34.10
2018-03-06T00:35:23.806Z,37.20
2018-03-06T00:37:50.619Z,37.07
2018-03-06T00:40:17.467Z,37.63
2018-03-06T00:42:45.029Z,37.97
2018-03-06T00:45:12.439Z,37.87
2018-03-06T00:47:39.270Z,38.37
2018-03-06T00:50:06.071Z,36.43
2018-03-06T00:52:32.868Z,36.33
2018-03-06T00:54:59.715Z,38.83
2018-03-06T00:57:26.555Z,38.23
2018-03-06T00:59:53.346Z,38.93
2018-03-06T01:02:20.155Z,38.70
2018-03-06T01:04:46.964Z,39.70
2018-03-06T01:07:13.757Z,39.47
2018-03-06T01:09:40.568Z,42.00
2018-03-06T01:12:07.371Z,40.37
2018-03-06T01:14:34.208Z,44.13
2018-03-06T01:17:00.996Z,42.07
2018-03-06T01:19:27.802Z,44.50
2018-03-06T01:21:54.629Z,43.57
2018-03-06T01:24:21.451Z,43.17
2018-03-06T01:26:48.226Z,46.57
2018-03-06T01:29:15.044Z,45.97
2018-03-06T01:31:41.843Z,46.27
2018-03-06T01:34:08.646Z,45.33
2018-03-06T01:36:35.451Z,44.80
2018-03-06T01:39:02.295Z,45.57
2018-03-06T01:41:29.127Z,42.90
2018-03-06T01:43:55.973Z,43.33
2018-03-06T01:46:22.766Z,43.83
2018-03-06T01:48:49.590Z,43.13
2018-03-06T01:51:16.377Z,43.10
2018-03-06T01:53:43.189Z,43.77
2018-03-06T01:56:09.971Z,44.73
2018-03-06T01:58:36.830Z,46.07
2018-03-06T02:01:03.643Z,44.90
2018-03-06T02:03:30.654Z,42.40
2018-03-06T02:05:57.510Z,41.83
2018-03-06T02:08:24.304Z,44.50
2018-03-06T02:10:51.079Z,43.03
2018-03-06T02:13:17.958Z,41.47
2018-03-06T02:15:44.851Z,42.83
2018-03-06T02:18:11.678Z,44.17
2018-03-06T02:20:38.497Z,41.97
2018-03-06T02:23:05.295Z,41.63
2018-03-06T02:25:32.088Z,42.53
2018-03-06T02:27:58.914Z,40.73
2018-03-06T02:30:25.736Z,40.10
2018-03-06T02:32:52.591Z,43.10
2018-03-06T02:35:19.394Z,42.17
2018-03-06T02:37:46.221Z,41.93
2018-03-06T02:40:13.027Z,41.20
2018-03-06T02:42:39.834Z,43.10
2018-03-06T02:45:06.616Z,42.10
2018-03-06T02:47:33.393Z,43.67
2018-03-06T02:50:00.306Z,44.33
2018-03-06T02:52:27.110Z,40.93
2018-03-06T02:54:53.938Z,41.03
2018-03-06T02:57:20.743Z,40.37
2018-03-06T02:59:47.815Z,42.80
2018-03-06T03:02:14.644Z,40.37
2018-03-06T03:04:41.469Z,40.07
2018-03-06T03:07:08.372Z,39.73
2018-03-06T03:09:35.171Z,38.97
2018-03-06T03:12:01.967Z,40.00
2018-03-06T03:14:28.764Z,40.37
2018-03-06T03:16:55.549Z,39.70
2018-03-06T03:19:22.348Z,39.67
2018-03-06T03:21:49.111Z,38.23
2018-03-06T03:24:15.948Z,38.07
2018-03-06T03:26:42.726Z,39.90
2018-03-06T03:29:09.574Z,39.63
2018-03-06T03:31:36.513Z,38.80
2018-03-06T03:34:03.322Z,39.50
2018-03-06T03:36:30.130Z,44.10
2018-03-06T03:38:56.962Z,41.20
2018-03-06T03:41:23.751Z,40.37
2018-03-06T03:43:50.546Z,43.80
2018-03-06T03:46:17.367Z,42.47
2018-03-06T03:48:44.127Z,40.67
2018-03-06T03:51:10.928Z,43.33
2018-03-06T03:53:37.760Z,43.57
2018-03-06T03:56:04.566Z,42.17
2018-03-06T03:58:31.374Z,42.70
2018-03-06T04:00:58.167Z,44.83
2018-03-06T04:03:24.971Z,43.80
2018-03-06T04:05:51.761Z,46.43
2018-03-06T04:08:18.751Z,47.93
2018-03-06T04:10:45.539Z,49.33
2018-03-06T04:13:12.316Z,53.47
2018-03-06T04:15:39.110Z,56.43
2018-03-06T04:18:05.924Z,55.77
2018-03-06T04:20:32.746Z,55.00
2018-03-06T04:22:59.667Z,56.50
2018-03-06T04:25:26.499Z,55.23
2018-03-06T04:27:53.367Z,53.63
2018-03-06T04:30:20.211Z,55.43
2018-03-06T04:32:47.026Z,53.83
2018-03-06T04:35:13.829Z,54.13
2018-03-06T04:37:40.618Z,53.37
2018-03-06T04:40:07.415Z,55.57
2018-03-06T04:42:34.274Z,51.73
2018-03-06T04:45:01.071Z,50.37
2018-03-06T04:47:28.023Z,47.57
2018-03-06T04:49:54.808Z,52.73
2018-03-06T04:52:21.622Z,53.73
2018-03-06T04:54:48.418Z,51.00
2018-03-06T04:57:15.256Z,52.23
2018-03-06T04:59:42.069Z,53.20
2018-03-06T05:02:08.889Z,50.87
2018-03-06T05:04:35.683Z,54.90
2018-03-06T05:07:02.493Z,52.77
2018-03-06T05:09:29.278Z,54.77
2018-03-06T05:11:56.085Z,54.87
2018-03-06T05:14:22.893Z,52.33
2018-03-06T05:16:49.722Z,51.33
2018-03-06T05:19:16.526Z,53.00
2018-03-06T05:21:43.384Z,52.90
2018-03-06T05:24:10.205Z,51.53
2018-03-06T05:26:37.006Z,61.77
2018-03-06T05:29:03.799Z,58.77
2018-03-06T05:31:30.618Z,64.97
2018-03-06T05:33:57.440Z,52.97
2018-03-06T05:36:24.248Z,52.67
2018-03-06T05:38:51.058Z,50.80
2018-03-06T05:41:17.862Z,58.00
2018-03-06T05:43:44.962Z,58.27
2018-03-06T05:46:11.799Z,63.63
2018-03-06T05:48:38.586Z,65.00
2018-03-06T05:51:05.432Z,55.63
2018-03-06T05:53:32.357Z,49.63
2018-03-06T05:55:59.090Z,50.50
2018-03-06T05:58:25.908Z,51.87
2018-03-06T06:00:52.717Z,52.03
2018-03-06T06:03:19.523Z,51.40
2018-03-06T06:05:46.403Z,51.33
2018-03-06T06:08:13.187Z,55.20
2018-03-06T06:10:39.979Z,53.97
2018-03-06T06:13:06.806Z,55.13
2018-03-06T06:15:33.647Z,51.40
2018-03-06T06:18:00.407Z,51.23
2018-03-06T06:20:27.167Z,53.63
2018-03-06T06:22:53.947Z,54.97
2018-03-06T06:25:20.725Z,57.10
2018-03-06T06:27:47.484Z,55.50
2018-03-06T06:30:14.470Z,53.07
2018-03-06T06:32:41.263Z,52.27
2018-03-06T06:35:08.059Z,49.23
2018-03-06T06:37:34.845Z,52.73
2018-03-06T06:40:01.667Z,50.53
2018-03-06T06:42:28.452Z,52.27
2018-03-06T06:44:55.249Z,57.40
2018-03-06T06:47:22.023Z,49.80
2018-03-06T06:49:48.819Z,50.93
2018-03-06T06:52:15.623Z,49.70
2018-03-06T06:54:42.404Z,46.37
2018-03-06T06:57:09.232Z,47.80
2018-03-06T06:59:36.179Z,50.73
2018-03-06T07:02:02.951Z,52.83
2018-03-06T07:04:29.728Z,55.27
2018-03-06T07:06:56.508Z,61.97
2018-03-06T07:09:23.336Z,53.73
2018-03-06T07:11:50.107Z,52.10
2018-03-06T07:14:16.907Z,49.60
2018-03-06T07:16:43.719Z,49.47
2018-03-06T07:19:10.523Z,49.97
2018-03-06T07:21:37.293Z,47.87
2018-03-06T07:24:04.099Z,48.97
2018-03-06T07:26:30.897Z,51.13
2018-03-06T07:28:57.687Z,51.83
2018-03-06T07:31:24.459Z,48.90
2018-03-06T07:33:51.234Z,50.23
2018-03-06T07:36:18.001Z,52.50
2018-03-06T07:38:44.799Z,49.50
2018-03-06T07:41:11.714Z,50.50
2018-03-06T07:43:38.549Z,47.30
2018-03-06T07:46:08.825Z,47.83
2018-03-06T07:48:35.936Z,46.23
2018-03-06T07:51:02.784Z,49.20
2018-03-06T07:53:29.569Z,46.50
2018-03-06T07:55:56.327Z,47.17
2018-03-06T07:58:23.119Z,48.53
2018-03-06T08:00:49.951Z,48.53
2018-03-06T08:03:16.718Z,49.67
2018-03-06T08:05:43.481Z,47.20
2018-03-06T08:08:10.282Z,49.03
2018-03-06T08:10:37.075Z,44.40
2018-03-06T08:13:03.835Z,44.80
2018-03-06T08:15:30.595Z,43.57
2018-03-06T08:17:57.462Z,50.13
2018-03-06T08:20:24.264Z,56.23
2018-03-06T08:22:51.077Z,44.47
2018-03-06T08:25:17.863Z,45.10
2018-03-06T08:27:44.648Z,53.27
2018-03-06T08:30:11.423Z,56.87
2018-03-06T08:32:38.233Z,55.23
2018-03-06T08:35:05.010Z,46.40
2018-03-06T08:37:31.982Z,55.03
2018-03-06T08:39:58.742Z,57.73
2018-03-06T08:42:25.544Z,62.57
2018-03-06T08:44:58.592Z,53.87
2018-03-06T08:47:25.503Z,51.30
2018-03-06T08:49:52.409Z,50.47
2018-03-06T08:52:19.198Z,54.77
2018-03-06T08:54:47.023Z,59.43
2018-03-06T08:57:14.118Z,60.13
2018-03-06T08:59:40.972Z,59.90
2018-03-06T09:02:07.861Z,58.50
2018-03-06T09:04:34.984Z,68.07
2018-03-06T09:07:01.755Z,55.93
2018-03-06T09:09:28.594Z,51.87
2018-03-06T09:11:55.362Z,65.37
2018-03-06T09:14:22.135Z,64.90
2018-03-06T09:16:48.951Z,102.27
2018-03-06T09:19:15.737Z,76.53
2018-03-06T09:21:42.530Z,119.10
2018-03-06T09:24:09.337Z,67.87
2018-03-06T09:26:36.148Z,60.63
2018-03-06T09:29:02.887Z,61.03
2018-03-06T09:31:29.688Z,57.87
2018-03-06T09:33:57.207Z,55.23
2018-03-06T09:36:24.019Z,57.40
2018-03-06T09:38:50.885Z,53.80
2018-03-06T09:41:17.676Z,54.67
2018-03-06T09:43:44.519Z,60.03
2018-03-06T09:46:11.385Z,52.90
2018-03-06T09:48:38.236Z,54.73
2018-03-06T09:51:04.994Z,53.13
2018-03-06T09:53:31.782Z,51.93
2018-03-06T09:55:58.778Z,64.27
2018-03-06T09:58:25.530Z,44.33
2018-03-06T10:00:52.310Z,37.87
2018-03-06T10:03:19.074Z,33.57
2018-03-06T10:05:45.842Z,30.00
2018-03-06T10:08:12.649Z,31.00
2018-03-06T10:10:39.430Z,30.87
2018-03-06T10:13:06.385Z,33.27
2018-03-06T10:15:33.164Z,34.87
2018-03-06T10:17:59.919Z,38.00
2018-03-06T10:20:26.742Z,38.17
2018-03-06T10:22:53.514Z,38.30
2018-03-06T10:25:20.270Z,40.03
2018-03-06T10:27:47.090Z,39.80
2018-03-06T10:30:13.831Z,40.13
2018-03-06T10:32:41.150Z,43.43
2018-03-06T10:35:14.175Z,43.30
2018-03-06T10:37:43.561Z,44.63
2018-03-06T10:40:11.478Z,47.07
2018-03-06T10:42:39.136Z,47.00
2018-03-06T10:45:05.942Z,50.93
2018-03-06T10:47:33.534Z,49.13
2018-03-06T10:50:00.399Z,49.57
2018-03-06T10:52:28.274Z,48.30
2018-03-06T10:54:55.187Z,49.93
2018-03-06T10:57:21.978Z,50.17
2018-03-06T10:59:48.780Z,52.53
2018-03-06T11:02:16.620Z,57.70
2018-03-06T11:04:43.483Z,59.33
2018-03-06T11:07:10.274Z,61.27
2018-03-06T11:09:37.067Z,70.37
2018-03-06T11:12:03.851Z,59.73
2018-03-06T11:14:30.621Z,58.23
2018-03-06T11:16:57.443Z,59.03
2018-03-06T11:19:24.236Z,57.83
2018-03-06T11:21:51.050Z,58.93
2018-03-06T11:24:17.856Z,57.90
2018-03-06T11:26:44.618Z,56.77
2018-03-06T11:29:11.411Z,57.60
2018-03-06T11:31:38.271Z,56.33
2018-03-06T11:34:05.951Z,58.50
2018-03-06T11:36:32.746Z,56.17
2018-03-06T11:38:59.510Z,55.07
2018-03-06T11:41:26.315Z,55.30
2018-03-06T11:43:53.082Z,56.23
2018-03-06T11:46:19.915Z,58.37
2018-03-06T11:48:46.713Z,57.63
2018-03-06T11:51:13.486Z,59.77
2018-03-06T11:53:40.291Z,63.33
2018-03-06T11:56:07.300Z,60.20
2018-03-06T11:58:34.172Z,61.67
2018-03-06T12:01:00.936Z,58.30
2018-03-06T12:03:27.691Z,57.30
2018-03-06T12:05:54.466Z,58.90
2018-03-06T12:08:25.934Z,61.63
2018-03-06T12:10:52.738Z,57.77
2018-03-06T12:13:19.531Z,62.77
2018-03-06T12:15:46.298Z,69.77
2018-03-06T12:18:13.089Z,66.23
2018-03-06T12:20:39.870Z,73.10
2018-03-06T12:23:06.672Z,67.13
2018-03-06T12:25:33.442Z,68.23
2018-03-06T12:28:00.219Z,68.07
2018-03-06T12:30:26.986Z,74.97
2018-03-06T12:32:53.795Z,67.50
2018-03-06T12:35:20.609Z,70.97
2018-03-06T12:37:47.382Z,82.60
2018-03-06T12:40:14.160Z,69.30
2018-03-06T12:42:40.945Z,60.63
2018-03-06T12:45:07.723Z,60.27
2018-03-06T12:47:34.496Z,63.67
2018-03-06T12:50:01.299Z,62.73
2018-03-06T12:52:28.064Z,59.03
2018-03-06T12:54:54.863Z,65.13
2018-03-06T12:57:21.643Z,66.60
2018-03-06T12:59:48.442Z,87.47
2018-03-06T13:02:15.200Z,69.97
2018-03-06T13:04:42.000Z,66.17
2018-03-06T13:07:08.842Z,70.37
2018-03-06T13:09:35.611Z,68.37
2018-03-06T13:12:02.383Z,64.13
2018-03-06T13:14:29.147Z,63.23
2018-03-06T13:16:55.917Z,69.87
2018-03-06T13:19:22.692Z,67.03
2018-03-06T13:21:50.063Z,64.00
2018-03-06T13:24:16.842Z,69.70
2018-03-06T13:26:43.652Z,71.43
2018-03-06T13:29:10.420Z,73.10
2018-03-06T13:31:37.218Z,131.43
2018-03-06T13:34:04.001Z,184.63
2018-03-06T13:36:30.791Z,88.17
2018-03-06T13:38:57.534Z,124.90
2018-03-06T13:41:24.327Z,121.23
2018-03-06T13:43:51.123Z,92.87
2018-03-06T13:46:17.910Z,122.87
2018-03-06T13:48:44.679Z,121.37
2018-03-06T13:51:11.456Z,136.30
2018-03-06T13:53:38.272Z,120.87
2018-03-06T13:56:05.071Z,87.80
2018-03-06T13:58:31.832Z,80.90
2018-03-06T14:00:58.638Z,123.00
2018-03-06T14:03:25.411Z,331.80
2018-03-06T14:05:52.187Z,226.73
2018-03-06T14:08:19.188Z,87.97
2018-03-06T14:10:45.988Z,133.07
2018-03-06T14:13:12.758Z,79.60
2018-03-06T14:15:39.538Z,100.13
2018-03-06T14:18:06.355Z,75.57
2018-03-06T14:20:33.289Z,56.77
2018-03-06T14:23:00.043Z,76.50
2018-03-06T14:25:26.868Z,70.73
2018-03-06T14:27:53.656Z,69.27
2018-03-06T14:30:20.517Z,73.03
2018-03-06T14:32:47.313Z,64.30
2018-03-06T14:35:14.095Z,79.97
2018-03-06T14:37:41.091Z,63.90
2018-03-06T14:40:07.854Z,70.67
2018-03-06T14:42:34.613Z,65.73
2018-03-06T14:45:01.407Z,69.23
2018-03-06T14:47:28.179Z,63.23
2018-03-06T14:49:54.987Z,66.97
2018-03-06T14:52:21.802Z,132.00
2018-03-06T14:54:48.651Z,104.80
2018-03-06T14:57:15.419Z,152.40
2018-03-06T14:59:42.298Z,96.00
2018-03-06T15:02:09.079Z,74.57
2018-03-06T15:04:35.931Z,85.47
2018-03-06T15:07:02.993Z,81.20
2018-03-06T15:09:29.763Z,61.63
2018-03-06T15:11:56.586Z,77.90
2018-03-06T15:14:23.366Z,75.67
2018-03-06T15:16:50.153Z,70.33
2018-03-06T15:19:16.948Z,66.97
2018-03-06T15:21:43.779Z,66.43
2018-03-06T15:24:10.635Z,73.73
2018-03-06T15:26:37.908Z,62.70
2018-03-06T15:29:04.690Z,73.23
2018-03-06T15:31:31.457Z,58.50
2018-03-06T15:33:58.263Z,62.47
2018-03-06T15:36:25.027Z,65.47
2018-03-06T15:38:51.840Z,64.80
2018-03-06T15:41:18.702Z,69.57
2018-03-06T15:43:45.466Z,60.10
2018-03-06T15:46:12.223Z,64.90
2018-03-06T15:48:39.011Z,66.27
2018-03-06T15:51:05.882Z,65.33
2018-03-06T15:53:33.308Z,70.63
2018-03-06T15:56:01.663Z,110.93
2018-03-06T15:58:28.538Z,139.30
2018-03-06T16:00:55.395Z,77.30
2018-03-06T16:03:22.216Z,72.27
2018-03-06T16:05:49.173Z,67.50
2018-03-06T16:08:16.035Z,66.57
2018-03-06T16:10:43.667Z,65.47
2018-03-06T16:13:14.599Z,68.77
2018-03-06T16:15:44.104Z,71.53
2018-03-06T16:18:11.164Z,72.90
2018-03-06T16:20:37.956Z,75.07
2018-03-06T16:23:04.750Z,91.73
2018-03-06T16:25:35.923Z,80.90
2018-03-06T16:28:02.832Z,147.00
2018-03-06T16:30:29.623Z,88.43
2018-03-06T16:32:59.590Z,80.63
2018-03-06T16:35:26.926Z,79.90
2018-03-06T16:37:53.729Z,79.43
2018-03-06T16:40:20.571Z,79.57
2018-03-06T16:42:47.352Z,80.70
2018-03-06T16:45:14.174Z,77.23
2018-03-06T16:47:41.116Z,91.57
2018-03-06T16:50:07.938Z,77.47
2018-03-06T16:52:34.752Z,80.70
2018-03-06T16:55:01.534Z,76.63
2018-03-06T16:57:29.386Z,80.30
2018-03-06T16:59:56.179Z,87.90
2018-03-06T17:02:23.539Z,75.70
2018-03-06T17:04:50.348Z,77.80
2018-03-06T17:07:17.162Z,75.40
2018-03-06T17:09:43.992Z,73.33
2018-03-06T17:12:11.002Z,71.43
2018-03-06T17:14:37.812Z,77.03
2018-03-06T17:17:04.638Z,78.37
2018-03-06T17:19:31.444Z,77.33
2018-03-06T17:21:58.268Z,77.77
2018-03-06T17:24:25.068Z,74.83
2018-03-06T17:26:51.854Z,75.50
2018-03-06T17:29:18.665Z,79.00
2018-03-06T17:31:45.452Z,76.07
2018-03-06T17:34:12.265Z,76.20
2018-03-06T17:36:39.069Z,76.20
2018-03-06T17:39:05.950Z,72.43
2018-03-06T17:41:32.730Z,73.40
2018-03-06T17:43:59.525Z,75.43
2018-03-06T17:46:26.295Z,76.83
2018-03-06T17:48:53.129Z,76.67
2018-03-06T17:51:19.906Z,76.77
2018-03-06T17:53:46.693Z,76.13
2018-03-06T17:56:13.508Z,75.87
2018-03-06T17:58:40.319Z,75.47
2018-03-06T18:01:07.132Z,83.27
2018-03-06T18:03:33.945Z,104.40
2018-03-06T18:06:00.739Z,85.27
2018-03-06T18:08:27.611Z,80.57
2018-03-06T18:10:54.382Z,81.93
2018-03-06T18:13:21.428Z,80.77
2018-03-06T18:15:48.332Z,88.03
2018-03-06T18:18:15.203Z,94.50
2018-03-06T18:20:42.039Z,233.83
2018-03-06T18:23:08.815Z,311.90
2018-03-06T18:25:35.664Z,393.90
2018-03-06T18:28:02.476Z,470.10
2018-03-06T18:30:29.287Z,239.23
2018-03-06T18:32:56.102Z,478.67
2018-03-06T18:35:22.888Z,328.80
2018-03-06T18:37:49.675Z,165.57
2018-03-06T18:40:16.471Z,132.27
2018-03-06T18:42:43.232Z,104.33
2018-03-06T18:45:10.024Z,83.23
2018-03-06T18:47:36.816Z,102.63
2018-03-06T18:50:03.622Z,100.47
2018-03-06T18:52:30.424Z,102.83
2018-03-06T18:54:57.223Z,226.27
2018-03-06T18:57:24.065Z,253.43
2018-03-06T18:59:56.584Z,169.80
2018-03-06T19:02:41.224Z,234.70
2018-03-06T19:05:13.931Z,78.20
2018-03-06T19:07:40.931Z,111.47
2018-03-06T19:10:07.707Z,126.97
2018-03-06T19:12:34.516Z,99.87
2018-03-06T19:15:01.340Z,100.20
2018-03-06T19:17:28.144Z,100.23
2018-03-06T19:19:54.965Z,134.83
2018-03-06T19:22:21.758Z,107.00
2018-03-06T19:24:48.535Z,89.63
2018-03-06T19:27:15.329Z,95.40
2018-03-06T19:29:42.161Z,85.70
2018-03-06T19:32:09.036Z,77.80
2018-03-06T19:34:35.804Z,88.77
2018-03-06T19:37:02.644Z,74.77
2018-03-06T19:39:29.491Z,78.83
2018-03-06T19:41:56.279Z,73.00
2018-03-06T19:44:23.147Z,75.87
2018-03-06T19:46:49.941Z,71.60
2018-03-06T19:49:16.752Z,70.80
2018-03-06T19:51:43.663Z,120.10
2018-03-06T19:54:10.590Z,86.13
2018-03-06T19:56:37.460Z,70.93
2018-03-06T19:59:04.226Z,69.23
2018-03-06T20:01:31.021Z,69.03
2018-03-06T20:03:57.809Z,71.17
2018-03-06T20:06:24.712Z,78.43
2018-03-06T20:08:51.744Z,68.37
2018-03-06T20:11:18.525Z,70.07
2018-03-06T20:13:45.350Z,69.13
2018-03-06T20:16:12.160Z,68.97
2018-03-06T20:18:39.044Z,69.37
2018-03-06T20:21:05.859Z,69.87
2018-03-06T20:23:32.923Z,68.97
2018-03-06T20:25:59.837Z,67.77
2018-03-06T20:28:26.639Z,70.50
2018-03-06T20:30:59.094Z,71.83
2018-03-06T20:33:25.889Z,80.53
2018-03-06T20:35:52.650Z,74.93
2018-03-06T20:38:25.343Z,75.00
2018-03-06T20:40:52.733Z,79.63
2018-03-06T20:43:19.625Z,80.27
2018-03-06T20:45:52.542Z,78.73
2018-03-06T20:48:19.520Z,77.87
2018-03-06T20:50:50.135Z,78.00
2018-03-06T20:53:22.769Z,75.57
2018-03-06T20:55:49.614Z,97.93
2018-03-06T20:58:16.942Z,86.30
2018-03-06T21:00:44.416Z,81.30
2018-03-06T21:03:11.307Z,83.57
2018-03-06T21:05:38.863Z,84.63
2018-03-06T21:08:07.113Z,80.93
2018-03-06T21:10:34.094Z,105.77
2018-03-06T21:13:01.550Z,85.20
2018-03-06T21:15:30.387Z,81.70
2018-03-06T21:17:58.286Z,184.90
2018-03-06T21:20:25.342Z,90.83
2018-03-06T21:22:52.463Z,83.73
2018-03-06T21:25:19.266Z,81.40
2018-03-06T21:27:46.763Z,82.87
2018-03-06T21:30:14.892Z,86.17
2018-03-06T21:32:42.041Z,84.37
2018-03-06T21:35:08.855Z,83.63
2018-03-06T21:37:35.678Z,83.57
2018-03-06T21:40:02.483Z,82.70
2018-03-06T21:42:29.414Z,82.07
2018-03-06T21:44:56.368Z,82.70
2018-03-06T21:47:23.422Z,82.00
2018-03-06T21:49:50.179Z,78.03
2018-03-06T21:52:16.996Z,81.33
2018-03-06T21:54:43.925Z,81.57
2018-03-06T21:57:10.722Z,88.37
2018-03-06T21:59:37.548Z,84.20
2018-03-06T22:02:04.359Z,79.33
2018-03-06T22:04:31.289Z,81.67
2018-03-06T22:06:59.411Z,75.00
2018-03-06T22:09:26.225Z,76.57
2018-03-06T22:11:53.037Z,75.33
2018-03-06T22:14:19.961Z,77.63
2018-03-06T22:16:46.952Z,76.23
2018-03-06T22:19:13.790Z,76.27
2018-03-06T22:21:40.600Z,76.53
2018-03-06T22:24:07.415Z,73.90
2018-03-06T22:26:34.203Z,73.90
2018-03-06T22:29:01.901Z,69.13
2018-03-06T22:31:28.810Z,71.40
2018-03-06T22:33:55.595Z,75.10
2018-03-06T22:36:22.378Z,71.73
2018-03-06T22:38:49.161Z,70.63
2018-03-06T22:41:15.979Z,75.10
2018-03-06T22:43:42.747Z,80.40
2018-03-06T22:46:09.519Z,78.20
2018-03-06T22:48:38.824Z,80.47
2018-03-06T22:51:05.655Z,81.40
2018-03-06T22:53:32.463Z,83.30
2018-03-06T22:55:59.224Z,87.97
2018-03-06T22:58:25.994Z,89.67
2018-03-06T23:00:52.772Z,90.73
2018-03-06T23:03:19.547Z,90.30
2018-03-06T23:05:46.344Z,90.20
2018-03-06T23:08:13.103Z,89.27
2018-03-06T23:10:39.917Z,92.53
2018-03-06T23:13:06.687Z,91.13
2018-03-06T23:15:33.480Z,97.80
2018-03-06T23:18:00.280Z,101.20
2018-03-06T23:20:27.039Z,97.73
2018-03-06T23:22:53.835Z,96.70
2018-03-06T23:25:20.634Z,99.37
2018-03-06T23:27:47.419Z,92.53
2018-03-06T23:30:14.219Z,94.93
2018-03-06T23:32:41.002Z,90.13
2018-03-06T23:35:07.775Z,89.87
2018-03-06T23:37:34.557Z,85.23
2018-03-06T23:40:01.359Z,87.10
2018-03-06T23:42:28.159Z,85.80
2018-03-06T23:44:54.920Z,88.23
2018-03-06T23:47:21.691Z,93.73
2018-03-06T23:49:48.493Z,87.40
2018-03-06T23:52:15.260Z,82.17
2018-03-06T23:54:42.043Z,81.60
2018-03-06T23:57:08.799Z,86.87
2018-03-06T23:59:35.575Z,78.83
